createdAt,value
2023-03-14T00:01:17.919Z,9.00
2023-03-14T00:03:44.878Z,8.90
2023-03-14T00:06:12.308Z,9.00
2023-03-14T00:11:14.245Z,9.00
2023-03-14T00:13:41.101Z,9.10
2023-03-14T00:16:10.039Z,9.10
2023-03-14T00:18:36.839Z,9.20
2023-03-14T00:21:04.123Z,9.10
2023-03-14T00:23:31.603Z,9.10
2023-03-14T00:26:08.730Z,9.20
2023-03-14T00:28:35.492Z,9.20
2023-03-14T00:31:09.437Z,9.30
2023-03-14T00:36:10.106Z,9.40
2023-03-14T00:38:36.994Z,9.50
2023-03-14T00:41:07.655Z,9.60
2023-03-14T00:43:34.381Z,9.60
2023-03-14T00:46:01.189Z,9.50
2023-03-14T00:48:28.147Z,9.50
2023-03-14T00:53:21.970Z,9.40
2023-03-14T00:55:48.963Z,10.00
2023-03-14T00:58:16.614Z,9.40
2023-03-14T01:00:43.390Z,9.30
2023-03-14T01:03:10.572Z,9.40
2023-03-14T01:05:37.666Z,9.20
2023-03-14T01:08:04.593Z,9.10
2023-03-14T01:10:31.323Z,8.90
2023-03-14T01:12:58.001Z,9.00
2023-03-14T01:15:24.871Z,9.30
2023-03-14T01:17:51.553Z,9.10
2023-03-14T01:20:18.464Z,8.90
2023-03-14T01:22:45.289Z,8.90
2023-03-14T01:25:13.965Z,9.00
2023-03-14T01:27:40.652Z,9.10
2023-03-14T01:30:09.002Z,8.70
2023-03-14T01:32:35.937Z,8.70
2023-03-14T01:35:02.646Z,8.60
2023-03-14T01:37:29.348Z,8.60
2023-03-14T01:39:56.049Z,9.00
2023-03-14T01:42:23.009Z,8.60
2023-03-14T01:45:01.026Z,8.50
2023-03-14T01:47:27.890Z,8.50
2023-03-14T01:50:01.748Z,8.90
2023-03-14T01:52:28.477Z,8.20
2023-03-14T01:55:16.748Z,8.30
2023-03-14T01:57:49.066Z,8.30
2023-03-14T02:00:22.970Z,8.30
2023-03-14T02:03:11.343Z,8.30
2023-03-14T02:05:40.106Z,8.30
2023-03-14T02:08:08.259Z,8.20
2023-03-14T02:10:43.948Z,8.30
2023-03-14T02:13:10.727Z,8.30
2023-03-14T02:15:37.561Z,8.50
2023-03-14T02:18:04.674Z,8.30
2023-03-14T02:20:46.469Z,9.90
2023-03-14T02:23:13.962Z,8.40
2023-03-14T02:25:57.330Z,8.40
2023-03-14T02:28:24.032Z,8.40
2023-03-14T02:30:50.750Z,8.60
2023-03-14T02:33:20.031Z,8.50
2023-03-14T02:35:53.678Z,9.40
2023-03-14T02:38:40.652Z,8.40
2023-03-14T02:41:07.361Z,8.40
2023-03-14T02:43:34.091Z,8.50
2023-03-14T02:46:01.516Z,8.50
2023-03-14T02:48:31.344Z,9.60
2023-03-14T02:50:59.133Z,8.50
2023-03-14T02:53:30.835Z,8.50
2023-03-14T02:55:57.522Z,10.60
2023-03-14T02:58:24.335Z,12.70
2023-03-14T03:00:51.059Z,9.00
2023-03-14T03:03:17.887Z,8.50
2023-03-14T03:05:45.038Z,8.60
2023-03-14T03:08:11.846Z,9.00
2023-03-14T03:10:38.580Z,11.70
2023-03-14T03:13:05.315Z,9.00
2023-03-14T03:15:34.786Z,9.00
2023-03-14T03:18:01.600Z,9.20
2023-03-14T03:25:22.681Z,8.60
2023-03-14T03:27:49.379Z,8.60
2023-03-14T03:30:16.328Z,8.50
2023-03-14T03:32:43.059Z,8.60
2023-03-14T03:35:10.237Z,8.60
2023-03-14T03:37:37.033Z,8.60
2023-03-14T03:40:06.911Z,8.60
2023-03-14T03:42:34.309Z,8.60
2023-03-14T03:45:01.473Z,8.90
2023-03-14T03:47:28.314Z,8.60
2023-03-14T03:49:55.015Z,8.40
2023-03-14T03:52:21.781Z,8.50
2023-03-14T03:54:48.484Z,8.70
2023-03-14T03:57:15.354Z,8.40
2023-03-14T04:02:09.343Z,8.50
2023-03-14T04:04:36.405Z,12.20
2023-03-14T04:07:03.444Z,8.40
2023-03-14T04:09:30.138Z,8.80
2023-03-14T04:11:56.873Z,8.70
2023-03-14T04:14:23.842Z,8.60
2023-03-14T04:16:50.574Z,9.20
2023-03-14T04:19:17.339Z,8.80
2023-03-14T04:21:45.835Z,9.80
2023-03-14T04:24:12.612Z,8.40
2023-03-14T04:29:06.480Z,8.20
2023-03-14T04:31:33.371Z,8.80
2023-03-14T04:34:00.062Z,8.50
2023-03-14T04:36:26.861Z,8.70
2023-03-14T04:38:53.512Z,8.20
2023-03-14T04:41:20.247Z,8.80
2023-03-14T04:43:46.960Z,8.50
2023-03-14T04:46:13.752Z,8.30
2023-03-14T04:48:40.606Z,8.80
2023-03-14T04:51:07.629Z,8.40
2023-03-14T04:53:35.120Z,8.10
2023-03-14T04:56:02.488Z,9.20
2023-03-14T04:58:29.197Z,12.20
2023-03-14T05:00:56.012Z,9.40
2023-03-14T05:03:22.825Z,8.60
2023-03-14T05:05:49.601Z,8.30
2023-03-14T05:08:16.312Z,8.50
2023-03-14T05:10:43.040Z,8.20
2023-03-14T05:13:09.785Z,8.20
2023-03-14T05:15:36.545Z,8.50
2023-03-14T05:18:03.205Z,9.60
2023-03-14T05:20:29.914Z,8.90
2023-03-14T05:22:56.668Z,8.20
2023-03-14T05:25:25.970Z,8.10
2023-03-14T05:27:55.515Z,8.00
2023-03-14T05:30:22.787Z,7.80
2023-03-14T05:32:49.671Z,8.00
2023-03-14T05:35:16.596Z,8.10
2023-03-14T05:37:43.403Z,8.10
2023-03-14T05:40:13.061Z,7.90
2023-03-14T05:42:41.405Z,7.90
2023-03-14T05:45:08.675Z,9.00
2023-03-14T05:47:37.692Z,7.90
2023-03-14T05:50:04.690Z,7.90
2023-03-14T05:52:31.427Z,7.90
2023-03-14T05:54:58.126Z,8.50
2023-03-14T05:57:24.807Z,8.90
2023-03-14T05:59:51.551Z,8.50
2023-03-14T06:04:45.757Z,8.00
2023-03-14T06:07:12.495Z,7.90
2023-03-14T06:09:40.699Z,8.60
2023-03-14T06:14:34.725Z,8.00
2023-03-14T06:17:01.663Z,7.90
2023-03-14T06:19:28.540Z,8.00
2023-03-14T06:21:55.268Z,7.90
2023-03-14T06:26:52.988Z,8.00
2023-03-14T06:29:20.034Z,8.60
2023-03-14T06:31:46.930Z,8.00
2023-03-14T06:34:14.783Z,8.10
2023-03-14T06:36:41.496Z,8.10
2023-03-14T06:39:08.239Z,8.30
2023-03-14T06:41:34.936Z,8.30
2023-03-14T06:44:01.699Z,11.10
2023-03-14T06:46:28.411Z,8.20
2023-03-14T06:48:55.228Z,8.40
2023-03-14T06:51:22.030Z,8.20
2023-03-14T06:53:48.770Z,8.80
2023-03-14T06:56:15.519Z,9.80
2023-03-14T06:58:43.808Z,9.50
2023-03-14T07:01:26.113Z,8.40
2023-03-14T07:03:52.947Z,8.40
2023-03-14T07:06:19.768Z,9.30
2023-03-14T07:08:46.960Z,9.40
2023-03-14T07:11:13.697Z,9.70
2023-03-14T07:13:43.017Z,8.40
2023-03-14T07:16:09.966Z,9.00
2023-03-14T07:21:46.403Z,8.50
2023-03-14T07:24:14.055Z,8.40
2023-03-14T07:29:08.169Z,8.50
2023-03-14T07:31:35.061Z,9.00
2023-03-14T07:34:01.822Z,8.50
2023-03-14T07:36:28.764Z,8.80
2023-03-14T07:38:55.727Z,8.60
2023-03-14T07:41:24.046Z,8.70
2023-03-14T07:43:50.900Z,9.10
2023-03-14T07:46:19.800Z,8.90
2023-03-14T07:48:46.573Z,8.60
2023-03-14T07:53:40.538Z,8.80
2023-03-14T07:56:07.511Z,8.80
2023-03-14T07:58:34.964Z,8.80
2023-03-14T08:01:01.876Z,8.90
2023-03-14T08:03:28.689Z,8.90
2023-03-14T08:10:50.029Z,8.90
2023-03-14T08:13:16.960Z,8.90
2023-03-14T08:15:44.078Z,9.00
2023-03-14T08:18:11.096Z,9.00
2023-03-14T08:23:05.496Z,9.10
2023-03-14T08:25:33.329Z,9.20
2023-03-14T08:28:00.197Z,9.20
2023-03-14T08:30:27.324Z,9.30
2023-03-14T08:35:21.605Z,9.40
2023-03-14T08:37:48.667Z,9.60
2023-03-14T08:42:43.312Z,9.70
2023-03-14T08:47:37.828Z,9.90
2023-03-14T08:50:05.907Z,10.00
2023-03-14T08:52:32.924Z,10.00
2023-03-14T08:54:59.965Z,10.00
2023-03-14T09:02:24.189Z,10.50
2023-03-14T09:07:20.049Z,10.40
2023-03-14T09:09:46.859Z,10.30
2023-03-14T09:12:13.821Z,10.50
2023-03-14T09:17:08.879Z,10.80
2023-03-14T09:22:03.792Z,10.80
2023-03-14T09:24:31.005Z,10.90
2023-03-14T09:26:58.368Z,10.80
2023-03-14T09:29:25.853Z,10.90
2023-03-14T09:34:24.400Z,11.20
2023-03-14T09:36:59.328Z,11.80
2023-03-14T09:44:24.396Z,11.40
2023-03-14T09:46:53.707Z,10.40
2023-03-14T09:49:32.856Z,12.30
2023-03-14T09:55:06.767Z,12.30
2023-03-14T09:57:55.302Z,12.10
2023-03-14T10:00:24.984Z,12.10
2023-03-14T10:02:56.732Z,12.00
2023-03-14T10:05:25.458Z,12.20
2023-03-14T10:07:52.278Z,12.20
2023-03-14T10:10:23.170Z,12.30
2023-03-14T10:13:00.597Z,11.80
2023-03-14T10:15:34.850Z,12.70
2023-03-14T10:18:02.924Z,11.90
2023-03-14T10:20:41.212Z,12.50
2023-03-14T10:23:14.337Z,11.80
2023-03-14T10:25:42.457Z,11.90
2023-03-14T10:28:28.543Z,11.90
2023-03-14T10:33:24.397Z,12.20
2023-03-14T10:36:19.198Z,12.60
2023-03-14T10:38:46.005Z,12.20
2023-03-14T10:41:20.782Z,12.40
2023-03-14T10:43:48.266Z,12.70
2023-03-14T10:46:19.167Z,12.50
2023-03-14T10:48:46.951Z,12.40
2023-03-14T10:51:40.130Z,12.30
2023-03-14T10:54:15.153Z,12.30
2023-03-14T10:56:41.840Z,12.40
2023-03-14T10:59:12.409Z,12.40
2023-03-14T11:01:48.116Z,12.40
2023-03-14T11:04:33.064Z,12.30
2023-03-14T11:07:04.708Z,12.40
2023-03-14T11:09:31.448Z,12.60
2023-03-14T11:12:06.290Z,12.50
2023-03-14T11:14:44.797Z,12.40
2023-03-14T11:17:25.280Z,12.60
2023-03-14T11:20:18.175Z,12.80
2023-03-14T11:23:11.028Z,13.10
2023-03-14T11:28:34.247Z,12.90
2023-03-14T11:31:16.920Z,12.70
2023-03-14T11:33:52.626Z,12.60
2023-03-14T11:36:40.598Z,12.60
2023-03-14T11:39:16.391Z,12.60
2023-03-14T11:42:04.815Z,12.50
2023-03-14T11:44:35.735Z,12.40
2023-03-14T11:47:23.916Z,12.40
2023-03-14T11:50:05.637Z,12.30
2023-03-14T11:52:35.622Z,12.30
2023-03-14T11:55:27.025Z,12.30
2023-03-14T11:57:56.621Z,12.30
2023-03-14T12:00:24.364Z,14.40
2023-03-14T12:03:12.376Z,12.20
2023-03-14T12:05:44.569Z,12.10
2023-03-14T12:08:23.202Z,12.20
2023-03-14T12:10:52.613Z,12.40
2023-03-14T12:15:55.691Z,12.30
2023-03-14T12:18:30.588Z,12.40
2023-03-14T12:21:15.494Z,12.30
2023-03-14T12:23:43.485Z,12.30
2023-03-14T12:26:13.386Z,12.20
2023-03-14T12:31:37.650Z,12.10
2023-03-14T12:34:10.408Z,12.10
2023-03-14T12:36:50.082Z,12.00
2023-03-14T12:39:44.989Z,11.80
2023-03-14T12:42:13.526Z,11.80
2023-03-14T12:44:41.611Z,11.80
2023-03-14T12:47:20.754Z,11.80
2023-03-14T12:49:51.460Z,12.00
2023-03-14T12:52:21.184Z,11.80
2023-03-14T12:54:56.108Z,11.70
2023-03-14T12:57:22.979Z,11.80
2023-03-14T13:00:22.301Z,11.90
2023-03-14T13:07:44.259Z,11.60
2023-03-14T13:10:11.070Z,11.60
2023-03-14T13:12:57.919Z,11.50
2023-03-14T13:15:35.454Z,11.20
2023-03-14T13:18:14.499Z,11.10
2023-03-14T13:20:55.276Z,11.20
2023-03-14T13:23:24.089Z,11.10
2023-03-14T13:28:18.648Z,10.80
2023-03-14T13:30:46.706Z,10.50
2023-03-14T13:33:20.896Z,10.10
2023-03-14T13:36:03.639Z,10.00
2023-03-14T13:38:35.104Z,9.90
2023-03-14T13:41:05.014Z,9.80
2023-03-14T13:43:32.424Z,9.70
2023-03-14T13:46:02.284Z,9.60
2023-03-14T13:48:30.207Z,9.50
2023-03-14T13:51:07.476Z,11.10
2023-03-14T13:53:47.943Z,9.40
2023-03-14T13:56:14.638Z,9.20
2023-03-14T13:58:41.868Z,9.20
2023-03-14T14:01:19.595Z,9.10
2023-03-14T14:03:52.183Z,9.00
2023-03-14T14:06:40.738Z,9.40
2023-03-14T14:09:21.459Z,9.00
2023-03-14T14:12:15.939Z,8.80
2023-03-14T14:15:04.912Z,8.80
2023-03-14T14:17:37.109Z,8.70
2023-03-14T14:20:06.141Z,8.70
2023-03-14T14:22:33.511Z,8.40
2023-03-14T14:25:01.236Z,8.40
2023-03-14T14:27:36.258Z,8.30
2023-03-14T14:30:05.781Z,7.70
2023-03-14T14:32:39.624Z,7.60
2023-03-14T14:35:06.721Z,7.70
2023-03-14T14:37:35.478Z,7.90
2023-03-14T14:40:08.998Z,8.00
2023-03-14T14:42:36.376Z,8.00
2023-03-14T14:47:31.176Z,8.30
2023-03-14T14:50:00.763Z,8.60
2023-03-14T14:52:44.120Z,8.70
2023-03-14T14:55:20.547Z,8.60
2023-03-14T14:57:54.735Z,8.80
2023-03-14T15:00:25.832Z,8.90
2023-03-14T15:03:13.780Z,8.50
2023-03-14T15:05:40.611Z,8.40
2023-03-14T15:08:13.633Z,8.40
2023-03-14T15:10:40.497Z,8.30
2023-03-14T15:13:07.204Z,8.30
2023-03-14T15:15:33.942Z,8.30
2023-03-14T15:18:00.685Z,8.30
2023-03-14T15:22:54.561Z,8.70
2023-03-14T15:28:13.303Z,8.70
2023-03-14T15:30:40.050Z,8.30
2023-03-14T15:33:09.793Z,8.20
2023-03-14T15:35:39.622Z,8.50
2023-03-14T15:38:06.452Z,8.40
2023-03-14T15:40:33.158Z,9.70
2023-03-14T15:42:59.984Z,8.50
2023-03-14T15:47:54.295Z,8.30
2023-03-14T15:52:48.213Z,8.20
2023-03-14T15:55:15.357Z,8.20
2023-03-14T15:57:43.846Z,8.10
2023-03-14T16:00:18.573Z,8.20
2023-03-14T16:10:08.749Z,8.10
2023-03-14T16:12:35.688Z,7.90
2023-03-14T16:15:02.525Z,8.50
2023-03-14T16:17:29.217Z,7.90
2023-03-14T16:19:55.978Z,8.00
2023-03-14T16:22:22.754Z,8.00
2023-03-14T16:24:49.489Z,7.90
2023-03-14T16:29:43.725Z,7.70
2023-03-14T16:34:41.485Z,7.60
2023-03-14T16:39:51.220Z,7.50
2023-03-14T16:44:49.756Z,7.30
2023-03-14T16:47:16.525Z,7.20
2023-03-14T16:49:43.254Z,7.30
2023-03-14T16:52:10.291Z,7.30
2023-03-14T16:54:37.292Z,7.20
2023-03-14T16:57:04.027Z,9.10
2023-03-14T17:01:58.002Z,7.20
2023-03-14T17:04:24.868Z,7.10
2023-03-14T17:09:19.537Z,7.00
2023-03-14T17:11:46.401Z,6.80
2023-03-14T17:14:13.336Z,6.90
2023-03-14T17:16:40.217Z,8.20
2023-03-14T17:19:06.999Z,7.70
2023-03-14T17:21:33.735Z,6.70
2023-03-14T17:24:00.547Z,6.90
2023-03-14T17:33:55.067Z,6.80
2023-03-14T17:36:25.086Z,6.70
2023-03-14T17:41:21.959Z,6.70
2023-03-14T17:43:48.676Z,6.60
2023-03-14T17:46:16.990Z,6.60
2023-03-14T17:48:44.881Z,6.50
2023-03-14T17:51:12.224Z,6.50
2023-03-14T17:53:39.276Z,6.50
2023-03-14T17:56:06.758Z,6.50
2023-03-14T18:01:18.524Z,6.40
2023-03-14T18:03:48.277Z,7.40
2023-03-14T18:06:16.597Z,6.40
2023-03-14T18:11:11.637Z,6.40
2023-03-14T18:21:01.694Z,6.20
2023-03-14T18:23:28.427Z,6.20
2023-03-14T18:25:55.405Z,6.20
2023-03-14T18:28:23.194Z,6.20
2023-03-14T18:30:52.623Z,6.20
2023-03-14T18:33:22.497Z,6.20
2023-03-14T18:35:52.029Z,6.20
2023-03-14T18:38:19.446Z,6.10
2023-03-14T18:43:13.335Z,6.20
2023-03-14T18:48:07.253Z,6.20
2023-03-14T18:50:34.122Z,6.10
2023-03-14T18:53:01.777Z,6.00
2023-03-14T18:57:55.637Z,6.10
2023-03-14T19:00:22.524Z,6.20
2023-03-14T19:02:50.479Z,6.10
2023-03-14T19:05:17.222Z,6.20
2023-03-14T19:07:44.324Z,6.30
2023-03-14T19:10:11.543Z,6.30
2023-03-14T19:12:38.334Z,6.30
2023-03-14T19:15:05.367Z,6.30
2023-03-14T19:17:32.059Z,6.40
2023-03-14T19:19:58.797Z,6.30
2023-03-14T19:22:25.683Z,6.50
2023-03-14T19:29:48.373Z,6.40
2023-03-14T19:32:16.123Z,6.30
2023-03-14T19:34:44.129Z,6.40
2023-03-14T19:37:11.186Z,6.20
2023-03-14T19:39:38.042Z,6.40
2023-03-14T19:42:05.520Z,7.30
2023-03-14T19:44:32.238Z,6.10
2023-03-14T19:46:58.981Z,5.80
2023-03-14T19:49:26.605Z,5.80
2023-03-14T19:54:22.532Z,5.60
2023-03-14T19:56:49.520Z,7.30
2023-03-14T20:01:47.287Z,5.20
2023-03-14T20:04:14.765Z,5.00
2023-03-14T20:06:44.584Z,7.90
2023-03-14T20:09:11.425Z,4.80
2023-03-14T20:14:08.522Z,4.70
2023-03-14T20:16:37.439Z,4.70
2023-03-14T20:19:08.234Z,4.60
2023-03-14T20:21:35.087Z,4.60
2023-03-14T20:26:30.085Z,4.90
2023-03-14T20:28:59.353Z,4.90
2023-03-14T20:31:26.300Z,5.00
2023-03-14T20:38:48.690Z,5.00
2023-03-14T20:43:45.367Z,4.90
2023-03-14T20:46:17.695Z,4.90
2023-03-14T20:51:13.406Z,4.80
2023-03-14T20:53:40.851Z,4.70
2023-03-14T20:56:08.150Z,4.70
2023-03-14T21:01:05.215Z,4.50
2023-03-14T21:03:31.942Z,6.20
2023-03-14T21:05:58.837Z,4.40
2023-03-14T21:08:25.852Z,4.30
2023-03-14T21:10:54.663Z,4.40
2023-03-14T21:13:21.571Z,4.30
2023-03-14T21:18:16.196Z,4.30
2023-03-14T21:23:11.824Z,4.30
2023-03-14T21:25:38.663Z,4.20
2023-03-14T21:28:05.744Z,4.30
2023-03-14T21:30:33.309Z,4.10
2023-03-14T21:33:00.523Z,4.10
2023-03-14T21:37:54.550Z,4.10
2023-03-14T21:40:22.358Z,4.00
2023-03-14T21:42:49.238Z,4.00
2023-03-14T21:45:16.808Z,4.00
2023-03-14T21:47:47.461Z,4.00
2023-03-14T21:50:17.521Z,4.00
2023-03-14T21:52:46.390Z,3.90
2023-03-14T21:55:20.370Z,4.00
2023-03-14T21:57:47.880Z,3.80
2023-03-14T22:00:19.752Z,4.80
2023-03-14T22:03:03.311Z,6.50
2023-03-14T22:05:34.734Z,3.80
2023-03-14T22:08:01.478Z,3.80
2023-03-14T22:10:28.277Z,3.70
2023-03-14T22:12:56.180Z,6.90
2023-03-14T22:15:23.011Z,3.50
2023-03-14T22:17:49.736Z,7.60
2023-03-14T22:20:16.462Z,3.50
2023-03-14T22:25:10.723Z,3.50
2023-03-14T22:27:37.561Z,3.50
2023-03-14T22:30:04.785Z,3.50
2023-03-14T22:32:31.674Z,3.40
2023-03-14T22:34:58.543Z,5.80
2023-03-14T22:37:25.609Z,3.50
2023-03-14T22:39:52.618Z,3.50
2023-03-14T22:44:46.894Z,3.60
2023-03-14T22:47:13.654Z,3.60
2023-03-14T22:49:40.520Z,4.10
2023-03-14T22:54:34.585Z,3.70
2023-03-14T22:57:01.393Z,3.70
2023-03-14T22:59:28.237Z,3.70
2023-03-14T23:04:22.408Z,3.80
2023-03-14T23:06:49.216Z,4.90
2023-03-14T23:09:16.156Z,3.90
2023-03-14T23:16:40.494Z,3.90
2023-03-14T23:19:09.726Z,3.90
2023-03-14T23:21:36.714Z,3.80
2023-03-14T23:24:05.960Z,7.40
2023-03-14T23:26:35.729Z,3.50
2023-03-14T23:29:05.614Z,3.40
2023-03-14T23:31:33.177Z,3.30
2023-03-14T23:33:59.995Z,3.30
2023-03-14T23:36:26.875Z,3.20
2023-03-14T23:38:53.571Z,3.00
2023-03-14T23:41:21.233Z,2.90
2023-03-14T23:43:48.155Z,2.80
2023-03-14T23:46:15.996Z,2.60
2023-03-14T23:48:46.798Z,2.60
2023-03-14T23:51:14.272Z,2.50
2023-03-14T23:53:41.193Z,2.40
2023-03-14T23:58:36.317Z,2.40
